sensor_id;sensor_type;location;lat;lon;timestamp;pressure;altitude;pressure_sealevel;temperature;humidity
74403;BME280;62837;51.082;13.744;2023-02-26T00:01:47;99840.68;;;1.41;78.31
74403;BME280;62837;51.082;13.744;2023-02-26T00:04:18;99845.33;;;1.39;77.66
74403;BME280;62837;51.082;13.744;2023-02-26T00:06:49;99845.38;;;1.33;77.83
74403;BME280;62837;51.082;13.744;2023-02-26T00:09:28;99846.55;;;1.31;77.92
74403;BME280;62837;51.082;13.744;2023-02-26T00:12:00;99850.69;;;1.29;78.22
74403;BME280;62837;51.082;13.744;2023-02-26T00:14:31;99852.48;;;1.29;78.20
74403;BME280;62837;51.082;13.744;2023-02-26T00:17:25;99851.80;;;1.30;78.13
74403;BME280;62837;51.082;13.744;2023-02-26T00:20:00;99854.59;;;1.32;78.09
74403;BME280;62837;51.082;13.744;2023-02-26T00:22:33;99855.75;;;1.31;78.42
74403;BME280;62837;51.082;13.744;2023-02-26T00:25:06;99860.14;;;1.30;78.04
74403;BME280;62837;51.082;13.744;2023-02-26T00:27:37;99865.63;;;1.31;77.83
74403;BME280;62837;51.082;13.744;2023-02-26T00:30:10;99867.40;;;1.29;78.05
74403;BME280;62837;51.082;13.744;2023-02-26T00:32:40;99871.59;;;1.30;78.37
74403;BME280;62837;51.082;13.744;2023-02-26T00:35:14;99881.17;;;1.31;78.25
74403;BME280;62837;51.082;13.744;2023-02-26T00:38:02;99874.65;;;1.29;78.21
74403;BME280;62837;51.082;13.744;2023-02-26T00:40:42;99882.59;;;1.34;78.48
74403;BME280;62837;51.082;13.744;2023-02-26T00:43:17;99882.29;;;1.35;78.09
74403;BME280;62837;51.082;13.744;2023-02-26T00:45:57;99881.73;;;1.34;78.35
74403;BME280;62837;51.082;13.744;2023-02-26T00:48:39;99882.42;;;1.34;78.13
74403;BME280;62837;51.082;13.744;2023-02-26T00:51:19;99880.43;;;1.33;78.08
74403;BME280;62837;51.082;13.744;2023-02-26T00:53:58;99885.60;;;1.29;77.75
74403;BME280;62837;51.082;13.744;2023-02-26T00:56:33;99884.73;;;1.27;77.95
74403;BME280;62837;51.082;13.744;2023-02-26T00:59:04;99880.23;;;1.26;77.97
74403;BME280;62837;51.082;13.744;2023-02-26T01:01:36;99882.70;;;1.23;78.06
74403;BME280;62837;51.082;13.744;2023-02-26T01:04:10;99886.44;;;1.21;78.13
74403;BME280;62837;51.082;13.744;2023-02-26T01:06:41;99886.04;;;1.23;78.01
74403;BME280;62837;51.082;13.744;2023-02-26T01:09:18;99884.11;;;1.24;78.07
74403;BME280;62837;51.082;13.744;2023-02-26T01:11:52;99890.02;;;1.24;78.24
74403;BME280;62837;51.082;13.744;2023-02-26T01:14:24;99891.94;;;1.25;78.14
74403;BME280;62837;51.082;13.744;2023-02-26T01:16:58;99894.27;;;1.25;78.34
74403;BME280;62837;51.082;13.744;2023-02-26T01:19:35;99891.35;;;1.26;78.05
74403;BME280;62837;51.082;13.744;2023-02-26T01:22:14;99892.36;;;1.27;78.40
74403;BME280;62837;51.082;13.744;2023-02-26T01:25:01;99893.77;;;1.28;78.10
74403;BME280;62837;51.082;13.744;2023-02-26T01:27:33;99896.36;;;1.27;77.89
74403;BME280;62837;51.082;13.744;2023-02-26T01:30:07;99901.07;;;1.24;78.15
74403;BME280;62837;51.082;13.744;2023-02-26T01:32:45;99898.23;;;1.24;77.81
74403;BME280;62837;51.082;13.744;2023-02-26T01:35:27;99903.07;;;1.21;78.11
74403;BME280;62837;51.082;13.744;2023-02-26T01:38:03;99904.87;;;1.23;78.24
74403;BME280;62837;51.082;13.744;2023-02-26T01:40:53;99905.91;;;1.23;78.18
74403;BME280;62837;51.082;13.744;2023-02-26T01:43:34;99910.94;;;1.19;78.12
74403;BME280;62837;51.082;13.744;2023-02-26T01:46:13;99913.23;;;1.20;78.30
74403;BME280;62837;51.082;13.744;2023-02-26T01:48:51;99915.85;;;1.22;78.56
74403;BME280;62837;51.082;13.744;2023-02-26T01:51:43;99918.73;;;1.24;78.56
74403;BME280;62837;51.082;13.744;2023-02-26T01:54:16;99916.64;;;1.26;78.73
74403;BME280;62837;51.082;13.744;2023-02-26T01:56:52;99920.80;;;1.30;78.89
74403;BME280;62837;51.082;13.744;2023-02-26T01:59:25;99922.09;;;1.33;78.35
74403;BME280;62837;51.082;13.744;2023-02-26T02:01:57;99928.31;;;1.34;78.29
74403;BME280;62837;51.082;13.744;2023-02-26T02:04:29;99930.50;;;1.35;78.40
74403;BME280;62837;51.082;13.744;2023-02-26T02:07:03;99936.50;;;1.36;78.42
74403;BME280;62837;51.082;13.744;2023-02-26T02:09:34;99941.48;;;1.33;78.17
74403;BME280;62837;51.082;13.744;2023-02-26T02:12:23;99941.35;;;1.31;77.87
74403;BME280;62837;51.082;13.744;2023-02-26T02:15:06;99947.77;;;1.28;78.62
74403;BME280;62837;51.082;13.744;2023-02-26T02:17:49;99951.40;;;1.27;78.55
74403;BME280;62837;51.082;13.744;2023-02-26T02:20:40;99953.98;;;1.27;78.76
74403;BME280;62837;51.082;13.744;2023-02-26T02:23:18;99958.65;;;1.25;78.41
74403;BME280;62837;51.082;13.744;2023-02-26T02:26:08;99961.77;;;1.22;78.55
74403;BME280;62837;51.082;13.744;2023-02-26T02:28:56;99963.81;;;1.23;78.67
74403;BME280;62837;51.082;13.744;2023-02-26T02:31:34;99966.34;;;1.26;78.93
74403;BME280;62837;51.082;13.744;2023-02-26T02:34:14;99970.17;;;1.26;78.56
74403;BME280;62837;51.082;13.744;2023-02-26T02:36:48;99974.97;;;1.25;78.45
74403;BME280;62837;51.082;13.744;2023-02-26T02:39:24;99978.77;;;1.25;78.66
74403;BME280;62837;51.082;13.744;2023-02-26T02:41:59;99980.59;;;1.21;78.34
74403;BME280;62837;51.082;13.744;2023-02-26T02:44:36;99985.30;;;1.18;78.20
74403;BME280;62837;51.082;13.744;2023-02-26T02:47:10;99990.90;;;1.14;78.72
74403;BME280;62837;51.082;13.744;2023-02-26T02:49:40;99994.38;;;1.15;79.02
74403;BME280;62837;51.082;13.744;2023-02-26T02:52:18;100001.80;;;1.16;78.85
74403;BME280;62837;51.082;13.744;2023-02-26T02:54:55;99991.06;;;1.09;78.95
74403;BME280;62837;51.082;13.744;2023-02-26T02:57:36;100013.30;;;1.19;79.05
74403;BME280;62837;51.082;13.744;2023-02-26T03:00:13;100010.48;;;1.22;79.32
74403;BME280;62837;51.082;13.744;2023-02-26T03:02:50;100019.02;;;1.20;78.59
74403;BME280;62837;51.082;13.744;2023-02-26T03:05:23;100024.84;;;1.17;78.84
74403;BME280;62837;51.082;13.744;2023-02-26T03:07:57;100023.80;;;1.12;78.34
74403;BME280;62837;51.082;13.744;2023-02-26T03:10:29;100031.49;;;1.09;78.89
74403;BME280;62837;51.082;13.744;2023-02-26T03:13:00;100033.33;;;1.11;79.09
74403;BME280;62837;51.082;13.744;2023-02-26T03:15:38;100033.65;;;1.10;78.82
74403;BME280;62837;51.082;13.744;2023-02-26T03:18:25;100043.29;;;1.10;78.72
74403;BME280;62837;51.082;13.744;2023-02-26T03:21:05;100048.08;;;1.09;78.99
74403;BME280;62837;51.082;13.744;2023-02-26T03:23:44;100048.29;;;1.12;79.47
74403;BME280;62837;51.082;13.744;2023-02-26T03:26:21;100050.41;;;1.16;79.39
74403;BME280;62837;51.082;13.744;2023-02-26T03:28:58;100049.73;;;1.18;79.04
74403;BME280;62837;51.082;13.744;2023-02-26T03:31:34;100056.25;;;1.17;78.49
74403;BME280;62837;51.082;13.744;2023-02-26T03:34:10;100059.59;;;1.18;78.99
74403;BME280;62837;51.082;13.744;2023-02-26T03:36:47;100065.26;;;1.18;78.93
74403;BME280;62837;51.082;13.744;2023-02-26T03:39:27;100070.63;;;1.17;78.72
74403;BME280;62837;51.082;13.744;2023-02-26T03:42:06;100075.27;;;1.12;78.28
74403;BME280;62837;51.082;13.744;2023-02-26T03:44:50;100081.69;;;1.08;78.94
74403;BME280;62837;51.082;13.744;2023-02-26T03:47:23;100086.14;;;1.10;78.92
74403;BME280;62837;51.082;13.744;2023-02-26T03:50:00;100089.77;;;1.11;79.13
74403;BME280;62837;51.082;13.744;2023-02-26T03:52:36;100096.36;;;1.10;79.11
74403;BME280;62837;51.082;13.744;2023-02-26T03:55:35;100099.43;;;1.11;79.13
74403;BME280;62837;51.082;13.744;2023-02-26T03:58:29;100105.08;;;1.15;79.33
74403;BME280;62837;51.082;13.744;2023-02-26T04:01:27;100107.48;;;1.17;79.05
74403;BME280;62837;51.082;13.744;2023-02-26T04:04:04;100108.83;;;1.16;79.42
74403;BME280;62837;51.082;13.744;2023-02-26T04:06:37;100110.42;;;1.18;79.30
74403;BME280;62837;51.082;13.744;2023-02-26T04:09:08;100115.75;;;1.20;79.44
74403;BME280;62837;51.082;13.744;2023-02-26T04:11:41;100110.73;;;1.16;78.77
74403;BME280;62837;51.082;13.744;2023-02-26T04:14:13;100124.73;;;1.15;78.81
74403;BME280;62837;51.082;13.744;2023-02-26T04:16:45;100123.98;;;1.17;79.18
74403;BME280;62837;51.082;13.744;2023-02-26T04:19:16;100129.95;;;1.18;78.89
74403;BME280;62837;51.082;13.744;2023-02-26T04:21:47;100133.63;;;1.19;78.91
74403;BME280;62837;51.082;13.744;2023-02-26T04:24:18;100139.53;;;1.18;78.53
74403;BME280;62837;51.082;13.744;2023-02-26T04:26:50;100143.39;;;1.11;78.63
74403;BME280;62837;51.082;13.744;2023-02-26T04:29:20;100146.74;;;1.10;78.98
74403;BME280;62837;51.082;13.744;2023-02-26T04:31:51;100151.16;;;1.08;78.24
74403;BME280;62837;51.082;13.744;2023-02-26T04:34:22;100151.36;;;1.05;78.59
74403;BME280;62837;51.082;13.744;2023-02-26T04:36:53;100146.69;;;1.02;78.79
74403;BME280;62837;51.082;13.744;2023-02-26T04:39:24;100155.02;;;1.03;78.77
74403;BME280;62837;51.082;13.744;2023-02-26T04:41:55;100159.05;;;1.00;77.88
74403;BME280;62837;51.082;13.744;2023-02-26T04:44:26;100162.83;;;0.96;78.57
74403;BME280;62837;51.082;13.744;2023-02-26T04:46:57;100162.71;;;0.98;78.94
74403;BME280;62837;51.082;13.744;2023-02-26T04:49:28;100169.55;;;1.03;78.80
74403;BME280;62837;51.082;13.744;2023-02-26T04:51:58;100173.43;;;1.06;78.58
74403;BME280;62837;51.082;13.744;2023-02-26T04:54:30;100168.27;;;1.00;78.42
74403;BME280;62837;51.082;13.744;2023-02-26T04:57:01;100176.63;;;1.01;78.04
74403;BME280;62837;51.082;13.744;2023-02-26T04:59:31;100178.09;;;1.01;78.76
74403;BME280;62837;51.082;13.744;2023-02-26T05:02:03;100183.05;;;1.04;78.73
74403;BME280;62837;51.082;13.744;2023-02-26T05:04:34;100189.36;;;1.08;78.79
74403;BME280;62837;51.082;13.744;2023-02-26T05:07:05;100190.13;;;1.09;78.18
74403;BME280;62837;51.082;13.744;2023-02-26T05:09:36;100193.78;;;1.09;78.48
74403;BME280;62837;51.082;13.744;2023-02-26T05:12:07;100201.34;;;1.12;78.67
74403;BME280;62837;51.082;13.744;2023-02-26T05:14:38;100205.92;;;1.14;78.25
74403;BME280;62837;51.082;13.744;2023-02-26T05:17:09;100209.64;;;1.17;78.76
74403;BME280;62837;51.082;13.744;2023-02-26T05:19:40;100212.99;;;1.18;78.20
74403;BME280;62837;51.082;13.744;2023-02-26T05:22:10;100210.27;;;1.19;78.24
74403;BME280;62837;51.082;13.744;2023-02-26T05:24:42;100220.08;;;1.21;78.01
74403;BME280;62837;51.082;13.744;2023-02-26T05:27:13;100218.05;;;1.23;78.04
74403;BME280;62837;51.082;13.744;2023-02-26T05:29:47;100224.05;;;1.25;78.19
74403;BME280;62837;51.082;13.744;2023-02-26T05:32:18;100223.27;;;1.27;77.85
74403;BME280;62837;51.082;13.744;2023-02-26T05:34:49;100230.73;;;1.29;77.88
74403;BME280;62837;51.082;13.744;2023-02-26T05:37:20;100235.31;;;1.31;78.04
74403;BME280;62837;51.082;13.744;2023-02-26T05:39:51;100230.40;;;1.30;77.73
74403;BME280;62837;51.082;13.744;2023-02-26T05:42:22;100240.53;;;1.32;78.19
74403;BME280;62837;51.082;13.744;2023-02-26T05:44:53;100244.79;;;1.34;78.20
74403;BME280;62837;51.082;13.744;2023-02-26T05:47:24;100249.86;;;1.35;77.79
74403;BME280;62837;51.082;13.744;2023-02-26T05:49:55;100254.86;;;1.36;77.77
74403;BME280;62837;51.082;13.744;2023-02-26T05:52:26;100258.84;;;1.37;77.94
74403;BME280;62837;51.082;13.744;2023-02-26T05:54:57;100260.98;;;1.39;77.96
74403;BME280;62837;51.082;13.744;2023-02-26T05:57:28;100258.92;;;1.35;77.41
74403;BME280;62837;51.082;13.744;2023-02-26T05:59:59;100270.77;;;1.38;77.68
74403;BME280;62837;51.082;13.744;2023-02-26T06:02:30;100275.73;;;1.39;77.62
74403;BME280;62837;51.082;13.744;2023-02-26T06:05:01;100280.69;;;1.40;77.87
74403;BME280;62837;51.082;13.744;2023-02-26T06:07:31;100281.73;;;1.39;77.36
74403;BME280;62837;51.082;13.744;2023-02-26T06:10:02;100286.98;;;1.38;77.68
74403;BME280;62837;51.082;13.744;2023-02-26T06:12:33;100289.77;;;1.37;77.71
74403;BME280;62837;51.082;13.744;2023-02-26T06:15:06;100297.24;;;1.35;77.64
74403;BME280;62837;51.082;13.744;2023-02-26T06:17:38;100302.75;;;1.36;78.03
74403;BME280;62837;51.082;13.744;2023-02-26T06:20:11;100303.89;;;1.37;78.21
74403;BME280;62837;51.082;13.744;2023-02-26T06:22:42;100306.44;;;1.39;77.88
74403;BME280;62837;51.082;13.744;2023-02-26T06:25:12;100313.19;;;1.37;77.46
74403;BME280;62837;51.082;13.744;2023-02-26T06:27:43;100319.84;;;1.35;77.68
74403;BME280;62837;51.082;13.744;2023-02-26T06:30:15;100321.24;;;1.31;77.48
74403;BME280;62837;51.082;13.744;2023-02-26T06:32:46;100325.62;;;1.29;77.85
74403;BME280;62837;51.082;13.744;2023-02-26T06:35:17;100332.11;;;1.29;78.04
74403;BME280;62837;51.082;13.744;2023-02-26T06:37:48;100341.86;;;1.30;77.77
74403;BME280;62837;51.082;13.744;2023-02-26T06:40:20;100349.29;;;1.32;77.74
74403;BME280;62837;51.082;13.744;2023-02-26T06:42:51;100352.52;;;1.30;77.57
74403;BME280;62837;51.082;13.744;2023-02-26T06:45:22;100354.13;;;1.32;78.09
74403;BME280;62837;51.082;13.744;2023-02-26T06:47:54;100355.71;;;1.35;77.74
74403;BME280;62837;51.082;13.744;2023-02-26T06:50:25;100359.34;;;1.32;77.10
74403;BME280;62837;51.082;13.744;2023-02-26T06:52:56;100364.65;;;1.30;77.21
74403;BME280;62837;51.082;13.744;2023-02-26T06:55:27;100370.43;;;1.26;76.28
74403;BME280;62837;51.082;13.744;2023-02-26T06:57:58;100375.88;;;1.20;77.22
74403;BME280;62837;51.082;13.744;2023-02-26T07:00:29;100376.20;;;1.23;77.88
74403;BME280;62837;51.082;13.744;2023-02-26T07:03:00;100380.23;;;1.28;78.06
74403;BME280;62837;51.082;13.744;2023-02-26T07:05:31;100379.55;;;1.34;77.47
74403;BME280;62837;51.082;13.744;2023-02-26T07:08:02;100381.99;;;1.37;77.71
74403;BME280;62837;51.082;13.744;2023-02-26T07:10:34;100386.06;;;1.43;78.03
74403;BME280;62837;51.082;13.744;2023-02-26T07:13:06;100394.55;;;1.46;77.76
74403;BME280;62837;51.082;13.744;2023-02-26T07:15:37;100397.66;;;1.46;77.60
74403;BME280;62837;51.082;13.744;2023-02-26T07:18:08;100401.83;;;1.46;77.34
74403;BME280;62837;51.082;13.744;2023-02-26T07:20:39;100409.66;;;1.48;78.09
74403;BME280;62837;51.082;13.744;2023-02-26T07:23:11;100407.38;;;1.53;77.87
74403;BME280;62837;51.082;13.744;2023-02-26T07:25:41;100417.09;;;1.59;77.77
74403;BME280;62837;51.082;13.744;2023-02-26T07:28:12;100413.11;;;1.64;77.78
74403;BME280;62837;51.082;13.744;2023-02-26T07:30:43;100416.85;;;1.68;77.82
74403;BME280;62837;51.082;13.744;2023-02-26T07:33:14;100425.21;;;1.72;77.42
74403;BME280;62837;51.082;13.744;2023-02-26T07:35:45;100426.21;;;1.74;77.52
74403;BME280;62837;51.082;13.744;2023-02-26T07:38:16;100422.31;;;1.78;77.72
74403;BME280;62837;51.082;13.744;2023-02-26T07:40:48;100428.23;;;1.80;77.29
74403;BME280;62837;51.082;13.744;2023-02-26T07:43:19;100437.63;;;1.81;77.09
74403;BME280;62837;51.082;13.744;2023-02-26T07:45:51;100438.27;;;1.82;77.01
74403;BME280;62837;51.082;13.744;2023-02-26T07:48:22;100441.29;;;1.83;76.98
74403;BME280;62837;51.082;13.744;2023-02-26T07:50:54;100438.86;;;1.85;77.09
74403;BME280;62837;51.082;13.744;2023-02-26T07:53:25;100446.60;;;1.88;76.99
74403;BME280;62837;51.082;13.744;2023-02-26T07:55:55;100451.03;;;1.91;77.01
74403;BME280;62837;51.082;13.744;2023-02-26T07:58:26;100458.68;;;1.95;77.12
74403;BME280;62837;51.082;13.744;2023-02-26T08:00:58;100458.29;;;1.98;76.71
74403;BME280;62837;51.082;13.744;2023-02-26T08:03:29;100462.17;;;2.02;76.57
74403;BME280;62837;51.082;13.744;2023-02-26T08:06:00;100462.77;;;2.05;76.32
74403;BME280;62837;51.082;13.744;2023-02-26T08:08:31;100466.33;;;2.07;76.22
74403;BME280;62837;51.082;13.744;2023-02-26T08:11:03;100472.09;;;2.07;76.37
74403;BME280;62837;51.082;13.744;2023-02-26T08:13:34;100471.98;;;2.05;76.24
74403;BME280;62837;51.082;13.744;2023-02-26T08:16:05;100478.23;;;2.09;76.38
74403;BME280;62837;51.082;13.744;2023-02-26T08:18:36;100478.65;;;2.11;76.44
74403;BME280;62837;51.082;13.744;2023-02-26T08:21:07;100484.73;;;2.13;75.86
74403;BME280;62837;51.082;13.744;2023-02-26T08:23:39;100488.20;;;2.17;76.27
74403;BME280;62837;51.082;13.744;2023-02-26T08:26:10;100489.55;;;2.22;76.14
74403;BME280;62837;51.082;13.744;2023-02-26T08:28:42;100493.91;;;2.24;75.52
74403;BME280;62837;51.082;13.744;2023-02-26T08:31:15;100499.42;;;2.29;76.27
74403;BME280;62837;51.082;13.744;2023-02-26T08:33:46;100500.79;;;2.34;75.42
74403;BME280;62837;51.082;13.744;2023-02-26T08:36:17;100504.25;;;2.35;75.50
74403;BME280;62837;51.082;13.744;2023-02-26T08:38:50;100507.56;;;2.38;75.49
74403;BME280;62837;51.082;13.744;2023-02-26T08:41:20;100511.23;;;2.46;75.27
74403;BME280;62837;51.082;13.744;2023-02-26T08:43:52;100512.73;;;2.51;74.36
74403;BME280;62837;51.082;13.744;2023-02-26T08:46:23;100522.66;;;2.55;74.80
74403;BME280;62837;51.082;13.744;2023-02-26T08:48:54;100527.06;;;2.61;74.85
74403;BME280;62837;51.082;13.744;2023-02-26T08:51:25;100527.30;;;2.71;74.71
74403;BME280;62837;51.082;13.744;2023-02-26T08:53:56;100532.61;;;2.78;74.32
74403;BME280;62837;51.082;13.744;2023-02-26T08:56:27;100533.69;;;2.84;75.04
74403;BME280;62837;51.082;13.744;2023-02-26T08:58:58;100537.38;;;2.90;74.71
74403;BME280;62837;51.082;13.744;2023-02-26T09:01:28;100541.58;;;3.03;77.84
74403;BME280;62837;51.082;13.744;2023-02-26T09:03:59;100547.94;;;3.87;88.13
74403;BME280;62837;51.082;13.744;2023-02-26T09:06:30;100545.45;;;4.80;88.28
74403;BME280;62837;51.082;13.744;2023-02-26T09:09:01;100543.48;;;5.20;79.98
74403;BME280;62837;51.082;13.744;2023-02-26T09:11:32;100553.00;;;5.15;75.02
74403;BME280;62837;51.082;13.744;2023-02-26T09:14:03;100561.30;;;4.88;72.49
74403;BME280;62837;51.082;13.744;2023-02-26T09:16:34;100560.41;;;4.64;72.47
74403;BME280;62837;51.082;13.744;2023-02-26T09:19:06;100566.73;;;4.52;72.32
74403;BME280;62837;51.082;13.744;2023-02-26T09:21:37;100572.73;;;4.43;72.24
74403;BME280;62837;51.082;13.744;2023-02-26T09:24:09;100576.86;;;4.30;71.09
74403;BME280;62837;51.082;13.744;2023-02-26T09:26:39;100580.59;;;4.12;70.42
74403;BME280;62837;51.082;13.744;2023-02-26T09:29:10;100589.61;;;4.00;70.84
74403;BME280;62837;51.082;13.744;2023-02-26T09:31:42;100595.52;;;3.93;70.90
74403;BME280;62837;51.082;13.744;2023-02-26T09:34:14;100600.14;;;3.83;69.98
74403;BME280;62837;51.082;13.744;2023-02-26T09:36:44;100604.73;;;3.71;69.86
74403;BME280;62837;51.082;13.744;2023-02-26T09:39:15;100604.65;;;3.64;70.42
74403;BME280;62837;51.082;13.744;2023-02-26T09:41:49;100604.11;;;3.62;70.78
74403;BME280;62837;51.082;13.744;2023-02-26T09:44:23;100608.11;;;3.65;70.27
74403;BME280;62837;51.082;13.744;2023-02-26T09:47:01;100612.55;;;3.64;69.95
74403;BME280;62837;51.082;13.744;2023-02-26T09:49:42;100606.48;;;3.65;69.30
74403;BME280;62837;51.082;13.744;2023-02-26T09:52:19;100605.99;;;3.64;69.22
74403;BME280;62837;51.082;13.744;2023-02-26T09:54:57;100613.27;;;3.76;69.83
74403;BME280;62837;51.082;13.744;2023-02-26T09:57:31;100612.69;;;3.85;69.17
74403;BME280;62837;51.082;13.744;2023-02-26T10:00:06;100620.00;;;3.97;68.48
74403;BME280;62837;51.082;13.744;2023-02-26T10:03:04;100621.58;;;4.12;68.52
74403;BME280;62837;51.082;13.744;2023-02-26T10:05:41;100630.59;;;4.24;67.72
74403;BME280;62837;51.082;13.744;2023-02-26T10:08:17;100637.77;;;4.20;67.02
74403;BME280;62837;51.082;13.744;2023-02-26T10:10:56;100645.13;;;4.20;66.80
74403;BME280;62837;51.082;13.744;2023-02-26T10:13:35;100646.15;;;4.05;65.79
74403;BME280;62837;51.082;13.744;2023-02-26T10:16:29;100650.13;;;3.84;66.24
74403;BME280;62837;51.082;13.744;2023-02-26T10:19:05;100652.89;;;3.74;66.81
74403;BME280;62837;51.082;13.744;2023-02-26T10:21:39;100653.55;;;3.64;66.35
74403;BME280;62837;51.082;13.744;2023-02-26T10:24:14;100658.89;;;3.51;66.44
74403;BME280;62837;51.082;13.744;2023-02-26T10:26:53;100664.60;;;3.41;66.93
74403;BME280;62837;51.082;13.744;2023-02-26T10:29:30;100666.96;;;3.33;67.26
74403;BME280;62837;51.082;13.744;2023-02-26T10:32:12;100671.52;;;3.21;66.41
74403;BME280;62837;51.082;13.744;2023-02-26T10:34:52;100669.88;;;3.16;67.65
74403;BME280;62837;51.082;13.744;2023-02-26T10:37:35;100679.48;;;3.14;67.42
74403;BME280;62837;51.082;13.744;2023-02-26T10:40:15;100687.42;;;3.12;67.61
74403;BME280;62837;51.082;13.744;2023-02-26T10:42:49;100689.19;;;3.13;67.26
74403;BME280;62837;51.082;13.744;2023-02-26T10:45:32;100693.29;;;3.07;66.53
74403;BME280;62837;51.082;13.744;2023-02-26T10:48:25;100691.45;;;3.06;67.47
74403;BME280;62837;51.082;13.744;2023-02-26T10:50:59;100690.52;;;3.05;67.06
74403;BME280;62837;51.082;13.744;2023-02-26T10:53:31;100695.02;;;3.20;67.90
74403;BME280;62837;51.082;13.744;2023-02-26T10:56:07;100695.38;;;3.27;66.42
74403;BME280;62837;51.082;13.744;2023-02-26T10:58:39;100695.02;;;3.30;66.79
74403;BME280;62837;51.082;13.744;2023-02-26T11:01:15;100697.71;;;3.54;66.34
74403;BME280;62837;51.082;13.744;2023-02-26T11:03:48;100702.08;;;3.68;66.08
74403;BME280;62837;51.082;13.744;2023-02-26T11:06:23;100702.77;;;3.92;65.40
74403;BME280;62837;51.082;13.744;2023-02-26T11:08:58;100698.73;;;4.00;65.08
74403;BME280;62837;51.082;13.744;2023-02-26T11:11:42;100704.55;;;4.02;65.92
74403;BME280;62837;51.082;13.744;2023-02-26T11:14:15;100698.11;;;4.01;66.26
74403;BME280;62837;51.082;13.744;2023-02-26T11:16:49;100700.27;;;3.98;64.00
74403;BME280;62837;51.082;13.744;2023-02-26T11:19:26;100704.11;;;3.80;64.11
74403;BME280;62837;51.082;13.744;2023-02-26T11:21:59;100702.92;;;3.70;63.95
74403;BME280;62837;51.082;13.744;2023-02-26T11:24:35;100705.79;;;3.57;63.64
74403;BME280;62837;51.082;13.744;2023-02-26T11:27:13;100709.10;;;3.45;63.75
74403;BME280;62837;51.082;13.744;2023-02-26T11:29:48;100704.71;;;3.29;63.71
74403;BME280;62837;51.082;13.744;2023-02-26T11:32:21;100707.55;;;3.30;64.43
74403;BME280;62837;51.082;13.744;2023-02-26T11:34:52;100701.08;;;3.46;64.94
74403;BME280;62837;51.082;13.744;2023-02-26T11:37:28;100705.53;;;3.55;64.22
74403;BME280;62837;51.082;13.744;2023-02-26T11:40:03;100707.38;;;3.57;64.48
74403;BME280;62837;51.082;13.744;2023-02-26T11:42:40;100704.86;;;3.60;64.79
74403;BME280;62837;51.082;13.744;2023-02-26T11:45:17;100709.67;;;3.55;64.01
74403;BME280;62837;51.082;13.744;2023-02-26T11:47:51;100709.64;;;3.44;63.51
74403;BME280;62837;51.082;13.744;2023-02-26T11:50:26;100714.33;;;3.37;63.71
74403;BME280;62837;51.082;13.744;2023-02-26T11:53:03;100718.26;;;3.32;64.10
74403;BME280;62837;51.082;13.744;2023-02-26T11:55:37;100721.13;;;3.29;64.69
74403;BME280;62837;51.082;13.744;2023-02-26T11:58:18;100718.46;;;3.26;64.38
74403;BME280;62837;51.082;13.744;2023-02-26T12:00:52;100715.69;;;3.24;65.37
74403;BME280;62837;51.082;13.744;2023-02-26T12:03:25;100715.39;;;3.26;65.66
74403;BME280;62837;51.082;13.744;2023-02-26T12:05:57;100711.91;;;3.36;65.79
74403;BME280;62837;51.082;13.744;2023-02-26T12:08:32;100712.52;;;3.38;65.03
74403;BME280;62837;51.082;13.744;2023-02-26T12:11:29;100719.91;;;3.33;64.97
74403;BME280;62837;51.082;13.744;2023-02-26T12:14:10;100715.63;;;3.34;65.17
74403;BME280;62837;51.082;13.744;2023-02-26T12:16:53;100713.27;;;3.42;65.25
74403;BME280;62837;51.082;13.744;2023-02-26T12:19:37;100715.88;;;3.45;65.24
74403;BME280;62837;51.082;13.744;2023-02-26T12:22:25;100718.63;;;3.41;64.51
74403;BME280;62837;51.082;13.744;2023-02-26T12:25:17;100720.18;;;3.31;63.46
74403;BME280;62837;51.082;13.744;2023-02-26T12:28:05;100724.69;;;3.28;64.79
74403;BME280;62837;51.082;13.744;2023-02-26T12:30:52;100729.66;;;3.30;65.01
74403;BME280;62837;51.082;13.744;2023-02-26T12:33:36;100729.71;;;3.31;65.24
74403;BME280;62837;51.082;13.744;2023-02-26T12:36:21;100740.58;;;3.30;64.68
74403;BME280;62837;51.082;13.744;2023-02-26T12:39:06;100740.42;;;3.25;64.18
74403;BME280;62837;51.082;13.744;2023-02-26T12:42:01;100747.58;;;3.21;64.06
74403;BME280;62837;51.082;13.744;2023-02-26T12:44:52;100747.10;;;3.11;64.82
74403;BME280;62837;51.082;13.744;2023-02-26T12:47:39;100744.27;;;3.12;65.84
74403;BME280;62837;51.082;13.744;2023-02-26T12:50:35;100752.56;;;3.16;65.55
74403;BME280;62837;51.082;13.744;2023-02-26T12:56:33;100757.70;;;3.07;65.16
74403;BME280;62837;51.082;13.744;2023-02-26T12:59:28;100760.87;;;3.00;65.57
74403;BME280;62837;51.082;13.744;2023-02-26T13:02:20;100761.70;;;2.95;65.52
74403;BME280;62837;51.082;13.744;2023-02-26T13:05:13;100763.55;;;2.89;65.46
74403;BME280;62837;51.082;13.744;2023-02-26T13:08:00;100761.23;;;2.88;65.89
74403;BME280;62837;51.082;13.744;2023-02-26T13:10:43;100763.52;;;2.87;64.74
74403;BME280;62837;51.082;13.744;2023-02-26T13:13:40;100766.84;;;2.85;65.68
74403;BME280;62837;51.082;13.744;2023-02-26T13:16:27;100760.95;;;2.90;66.26
74403;BME280;62837;51.082;13.744;2023-02-26T13:19:15;100765.23;;;2.94;66.72
74403;BME280;62837;51.082;13.744;2023-02-26T13:21:52;100766.25;;;3.05;67.34
74403;BME280;62837;51.082;13.744;2023-02-26T13:24:30;100765.65;;;3.10;65.42
74403;BME280;62837;51.082;13.744;2023-02-26T13:27:03;100768.66;;;3.11;64.98
74403;BME280;62837;51.082;13.744;2023-02-26T13:29:39;100776.61;;;3.09;64.56
74403;BME280;62837;51.082;13.744;2023-02-26T13:32:15;100783.65;;;3.06;64.43
74403;BME280;62837;51.082;13.744;2023-02-26T13:34:51;100791.22;;;2.98;64.96
74403;BME280;62837;51.082;13.744;2023-02-26T13:37:26;100800.39;;;2.83;67.05
74403;BME280;62837;51.082;13.744;2023-02-26T13:40:15;100797.23;;;2.73;67.87